X  Fechar Dados meteorológicos de METAR da aviação     LIPX Verona-Villafranca Valerio Catullo Airport
Temperatura
46°F Temperatura
41°F Ponto de orvalho
82% Umidade



Vento
7 MPH
11 KM/H
3 M/S
6 NÓS



80°
L
Condições atuais

Nuvens esparsas Nuvens esparsas
Pressão 1006.77 (hPa) - 29.73 (inHg)
Visibilidade 6 (milha) - 9.7 (km)
Aeroporto
Código do aeroporto LIPX

Localização: Verona-Villafranca Valerio Catullo Airport
Distância: 0 (mi)

Metar:
LIPX 242150Z 08006KT 9999 SCT070 08/05 Q1007

Hora: 24-04-2024 21:50 CEST